createdAt,value
2023-05-22T00:00:46.194Z,98325.59
2023-05-22T00:03:53.426Z,98313.78
2023-05-22T00:06:55.676Z,98319.19
2023-05-22T00:09:59.066Z,98315.63
2023-05-22T00:13:04.182Z,98313.78
2023-05-22T00:16:06.718Z,98316.63
2023-05-22T00:19:13.601Z,98320.31
2023-05-22T00:22:16.585Z,98317.81
2023-05-22T00:25:21.479Z,98326.88
2023-05-22T00:28:31.964Z,98317.22
2023-05-22T00:31:45.078Z,98316.22
2023-05-22T00:34:51.510Z,98307.25
2023-05-22T00:37:56.663Z,98317.22
2023-05-22T00:41:03.624Z,98308.13
2023-05-22T00:44:12.185Z,98306.53
2023-05-22T00:47:14.832Z,98308.63
2023-05-22T00:50:19.352Z,98311.69
2023-05-22T00:53:33.933Z,98312.06
2023-05-22T00:56:39.946Z,98304.47
2023-05-22T00:59:46.391Z,98303.13
2023-05-22T01:02:53.594Z,98304.47
2023-05-22T01:05:56.470Z,98302.03
2023-05-22T01:08:58.692Z,98298.69
2023-05-22T01:12:07.235Z,98302.38
2023-05-22T01:15:17.630Z,98296.50
2023-05-22T01:18:25.180Z,98299.44
2023-05-22T01:21:38.499Z,98296.97
2023-05-22T01:25:02.785Z,98296.63
2023-05-22T01:28:23.618Z,98297.59
2023-05-22T01:31:31.175Z,98294.50
2023-05-22T01:34:37.872Z,98284.19
2023-05-22T01:37:40.837Z,98293.63
2023-05-22T01:40:44.936Z,98288.69
2023-05-22T01:43:51.196Z,98298.41
2023-05-22T01:47:00.560Z,98289.94
2023-05-22T01:50:02.825Z,98284.81
2023-05-22T01:53:08.517Z,98288.53
2023-05-22T01:56:14.663Z,98284.84
2023-05-22T01:59:21.694Z,98277.09
2023-05-22T02:02:26.312Z,98272.69
2023-05-22T02:05:33.723Z,98271.81
2023-05-22T02:08:45.871Z,98274.03
2023-05-22T02:11:48.717Z,98276.97
2023-05-22T02:14:53.139Z,98273.53
2023-05-22T02:18:07.153Z,98264.09
2023-05-22T02:21:10.595Z,98274.25
2023-05-22T02:24:15.486Z,98276.28
2023-05-22T02:27:20.837Z,98270.06
2023-05-22T02:30:22.954Z,98267.59
2023-05-22T02:33:30.116Z,98275.56
2023-05-22T02:36:39.432Z,98262.34
2023-05-22T02:39:42.736Z,98261.56
2023-05-22T02:42:45.122Z,98259.13
2023-05-22T02:45:48.811Z,98261.09
2023-05-22T02:48:52.280Z,98260.34
2023-05-22T02:51:56.582Z,98254.09
2023-05-22T02:55:01.131Z,98259.63
2023-05-22T02:58:03.129Z,98250.69
2023-05-22T03:01:06.727Z,98251.75
2023-05-22T03:04:14.015Z,98239.25
2023-05-22T03:07:18.043Z,98245.13
2023-05-22T03:10:20.377Z,98240.81
2023-05-22T03:13:22.623Z,98242.91
2023-05-22T03:16:25.303Z,98240.47
2023-05-22T03:19:33.951Z,98238.09
2023-05-22T03:22:36.366Z,98241.53
2023-05-22T03:25:38.862Z,98243.69
2023-05-22T03:28:41.069Z,98239.53
2023-05-22T03:31:49.092Z,98244.25
2023-05-22T03:34:52.582Z,98233.97
2023-05-22T03:37:54.925Z,98238.50
2023-05-22T03:40:57.048Z,98244.88
2023-05-22T03:44:03.204Z,98248.41
2023-05-22T03:47:06.797Z,98247.75
2023-05-22T03:50:10.824Z,98238.75
2023-05-22T03:53:12.914Z,98241.44
2023-05-22T03:56:15.393Z,98233.56
2023-05-22T03:59:19.708Z,98238.22
2023-05-22T04:02:26.449Z,98244.56
2023-05-22T04:05:32.289Z,98243.84
2023-05-22T04:08:34.587Z,98243.59
2023-05-22T04:11:37.268Z,98236.50
2023-05-22T04:14:39.305Z,98245.44
2023-05-22T04:17:41.668Z,98241.53
2023-05-22T04:20:46.259Z,98248.75
2023-05-22T04:23:49.556Z,98244.00
2023-05-22T04:26:52.753Z,98251.72
2023-05-22T04:29:55.127Z,98250.41
2023-05-22T04:33:00.396Z,98247.38
2023-05-22T04:36:06.985Z,98248.84
2023-05-22T04:39:11.180Z,98244.84
2023-05-22T04:42:14.590Z,98257.72
2023-05-22T04:45:19.646Z,98255.50
2023-05-22T04:48:22.590Z,98255.16
2023-05-22T04:51:29.811Z,98247.59
2023-05-22T04:54:34.670Z,98254.56
2023-05-22T04:57:37.217Z,98250.69
2023-05-22T05:00:39.891Z,98258.50
2023-05-22T05:03:45.108Z,98258.13
2023-05-22T05:06:49.028Z,98256.09
2023-05-22T05:09:56.853Z,98251.19
2023-05-22T05:12:59.213Z,98250.50
2023-05-22T05:16:01.433Z,98248.94
2023-05-22T05:19:04.221Z,98245.59
2023-05-22T05:22:10.914Z,98249.41
2023-05-22T05:25:17.820Z,98246.38
2023-05-22T05:28:20.183Z,98240.84
2023-05-22T05:31:23.581Z,98237.75
2023-05-22T05:34:26.705Z,98240.72
2023-05-22T05:37:41.963Z,98245.63
2023-05-22T05:40:46.005Z,98242.16
2023-05-22T05:43:48.282Z,98246.09
2023-05-22T05:46:52.664Z,98250.00
2023-05-22T05:49:56.443Z,98244.09
2023-05-22T05:53:01.854Z,98244.72
2023-05-22T05:56:04.519Z,98242.63
2023-05-22T05:59:28.495Z,98248.38
2023-05-22T06:02:55.425Z,98252.91
2023-05-22T06:06:17.646Z,98254.25
2023-05-22T06:09:41.158Z,98249.94
2023-05-22T06:12:51.020Z,98244.84
2023-05-22T06:15:54.072Z,98244.63
2023-05-22T06:18:57.456Z,98249.75
2023-05-22T06:22:03.070Z,98250.81
2023-05-22T06:25:07.687Z,98255.56
2023-05-22T06:28:13.401Z,98256.63
2023-05-22T06:31:15.946Z,98259.34
2023-05-22T06:34:22.582Z,98255.91
2023-05-22T06:37:28.197Z,98257.16
2023-05-22T06:40:34.781Z,98251.78
2023-05-22T06:43:47.289Z,98255.91
2023-05-22T06:46:50.687Z,98251.88
2023-05-22T06:49:58.026Z,98240.28
2023-05-22T06:53:03.289Z,98246.84
2023-05-22T06:56:10.910Z,98246.97
2023-05-22T06:59:28.079Z,98243.81
2023-05-22T07:02:42.302Z,98258.25
2023-05-22T07:06:02.648Z,98251.13
2023-05-22T07:09:07.795Z,98257.25
2023-05-22T07:12:11.741Z,98249.69
2023-05-22T07:15:16.590Z,98249.75
2023-05-22T07:18:23.980Z,98252.19
2023-05-22T07:21:30.606Z,98249.19
2023-05-22T07:24:33.324Z,98249.78
2023-05-22T07:27:37.189Z,98250.91
2023-05-22T07:30:39.776Z,98251.91
2023-05-22T07:33:43.322Z,98256.00
2023-05-22T07:36:48.965Z,98255.28
2023-05-22T07:39:53.142Z,98255.16
2023-05-22T07:42:59.179Z,98254.91
2023-05-22T07:46:03.090Z,98254.63
2023-05-22T07:49:12.632Z,98256.03
2023-05-22T07:52:18.914Z,98242.72
2023-05-22T07:55:24.162Z,98249.59
2023-05-22T07:58:37.067Z,98262.88
2023-05-22T08:01:39.806Z,98248.78
2023-05-22T08:04:42.145Z,98253.47
2023-05-22T08:07:44.481Z,98256.22
2023-05-22T08:11:03.045Z,98257.06
2023-05-22T08:14:10.776Z,98248.75
2023-05-22T08:17:13.074Z,98259.00
2023-05-22T08:20:16.473Z,98249.00
2023-05-22T08:23:21.026Z,98257.69
2023-05-22T08:26:30.102Z,98258.94
2023-05-22T08:29:38.360Z,98252.06
2023-05-22T08:32:43.228Z,98248.31
2023-05-22T08:35:45.541Z,98249.34
2023-05-22T08:38:48.388Z,98251.47
2023-05-22T08:41:50.574Z,98249.41
2023-05-22T08:44:58.174Z,98248.88
2023-05-22T08:48:05.468Z,98248.22
2023-05-22T08:51:07.994Z,98251.00
2023-05-22T08:54:10.675Z,98254.97
2023-05-22T08:57:14.646Z,98253.44
2023-05-22T09:00:19.889Z,98253.13
2023-05-22T09:03:23.251Z,98248.63
2023-05-22T09:06:27.625Z,98243.34
2023-05-22T09:09:29.938Z,98237.75
2023-05-22T09:12:38.682Z,98242.09
2023-05-22T09:15:42.072Z,98239.84
2023-05-22T09:18:45.084Z,98239.59
2023-05-22T09:21:48.178Z,98239.00
2023-05-22T09:24:50.496Z,98241.47
2023-05-22T09:27:54.378Z,98248.53
2023-05-22T09:31:02.517Z,98248.75
2023-05-22T09:34:08.358Z,98248.91
2023-05-22T09:37:10.643Z,98241.44
2023-05-22T09:40:14.276Z,98245.88
2023-05-22T09:43:18.777Z,98239.22
2023-05-22T09:46:26.224Z,98248.06
2023-05-22T09:49:30.337Z,98237.59
2023-05-22T09:52:33.664Z,98238.97
2023-05-22T09:55:37.812Z,98231.22
2023-05-22T09:58:42.057Z,98236.22
2023-05-22T10:01:54.053Z,98228.13
2023-05-22T10:05:00.177Z,98231.22
2023-05-22T10:08:08.035Z,98233.91
2023-05-22T10:11:11.344Z,98225.56
2023-05-22T10:14:13.641Z,98229.88
2023-05-22T10:17:19.791Z,98230.94
2023-05-22T10:20:22.119Z,98222.19
2023-05-22T10:23:26.965Z,98224.63
2023-05-22T10:26:29.474Z,98228.38
2023-05-22T10:29:43.509Z,98221.59
2023-05-22T10:32:52.665Z,98217.84
2023-05-22T10:35:57.240Z,98221.75
2023-05-22T10:39:13.044Z,98221.03
2023-05-22T10:42:17.301Z,98213.69
2023-05-22T10:45:23.185Z,98208.97
2023-05-22T10:48:39.686Z,98216.44
2023-05-22T10:51:44.804Z,98210.19
2023-05-22T10:54:49.231Z,98211.09
2023-05-22T10:57:54.928Z,98203.91
2023-05-22T11:01:10.651Z,98204.78
2023-05-22T11:04:20.829Z,98198.59
2023-05-22T11:07:29.686Z,98196.59
2023-05-22T11:10:49.510Z,98201.03
2023-05-22T11:13:51.978Z,98203.25
2023-05-22T11:17:00.095Z,98198.84
2023-05-22T11:20:10.706Z,98202.88
2023-05-22T11:23:15.425Z,98207.44
2023-05-22T11:26:17.806Z,98201.81
2023-05-22T11:29:19.934Z,98193.31
2023-05-22T11:32:23.719Z,98195.03
2023-05-22T11:35:27.515Z,98186.91
2023-05-22T11:38:30.711Z,98190.66
2023-05-22T11:41:35.231Z,98189.78
2023-05-22T11:44:39.258Z,98189.94
2023-05-22T11:47:48.231Z,98190.94
2023-05-22T11:50:52.011Z,98180.72
2023-05-22T11:53:57.067Z,98173.84
2023-05-22T11:56:59.499Z,98172.44
2023-05-22T12:00:07.574Z,98174.91
2023-05-22T12:03:17.728Z,98168.59
2023-05-22T12:06:22.677Z,98170.59
2023-05-22T12:09:27.589Z,98165.75
2023-05-22T12:12:41.471Z,98158.22
2023-05-22T12:15:52.318Z,98160.47
2023-05-22T12:18:56.916Z,98162.44
2023-05-22T12:22:08.616Z,98157.31
2023-05-22T12:25:20.595Z,98156.22
2023-05-22T12:28:23.202Z,98156.69
2023-05-22T12:31:27.271Z,98150.28
2023-05-22T12:34:45.436Z,98153.28
2023-05-22T12:37:59.652Z,98147.59
2023-05-22T12:41:02.420Z,98150.50
2023-05-22T12:44:06.042Z,98151.84
2023-05-22T12:47:09.929Z,98150.94
2023-05-22T12:50:19.306Z,98152.63
2023-05-22T12:53:32.335Z,98154.63
2023-05-22T12:56:35.115Z,98143.66
2023-05-22T12:59:46.759Z,98139.91
2023-05-22T13:02:51.611Z,98139.16
2023-05-22T13:06:10.476Z,98138.31
2023-05-22T13:09:21.227Z,98130.88
2023-05-22T13:12:27.420Z,98121.41
2023-05-22T13:15:31.733Z,98128.13
2023-05-22T13:18:41.784Z,98118.69
2023-05-22T13:21:45.597Z,98111.25
2023-05-22T13:24:49.295Z,98118.59
2023-05-22T13:27:52.269Z,98117.94
2023-05-22T13:31:01.672Z,98107.91
2023-05-22T13:34:05.634Z,98112.88
2023-05-22T13:37:08.181Z,98118.56
2023-05-22T13:40:13.044Z,98118.28
2023-05-22T13:43:15.584Z,98112.88
2023-05-22T13:46:22.485Z,98110.84
2023-05-22T13:49:24.687Z,98107.06
2023-05-22T13:52:30.052Z,98100.78
2023-05-22T13:55:33.829Z,98103.84
2023-05-22T13:58:38.169Z,98098.38
2023-05-22T14:01:40.674Z,98088.66
2023-05-22T14:04:47.006Z,98096.94
2023-05-22T14:07:58.103Z,98099.47
2023-05-22T14:11:02.159Z,98105.94
2023-05-22T14:14:04.299Z,98092.00
2023-05-22T14:17:10.850Z,98099.31
2023-05-22T14:20:17.915Z,98098.47
2023-05-22T14:23:20.069Z,98106.78
2023-05-22T14:26:27.305Z,98105.47
2023-05-22T14:29:30.211Z,98099.13
2023-05-22T14:32:32.417Z,98100.66
2023-05-22T14:35:36.308Z,98099.59
2023-05-22T14:38:48.778Z,98106.19
2023-05-22T14:41:53.337Z,98127.84
2023-05-22T14:45:00.167Z,98139.69
2023-05-22T14:48:02.698Z,98148.41
2023-05-22T14:51:04.867Z,98159.84
2023-05-22T14:54:07.934Z,98162.59
2023-05-22T14:57:17.022Z,98153.75
2023-05-22T15:00:22.384Z,98141.56
2023-05-22T15:03:28.318Z,98155.75
2023-05-22T15:06:36.831Z,98169.56
2023-05-22T15:09:43.434Z,98180.66
2023-05-22T15:12:51.863Z,98185.38
2023-05-22T15:16:05.971Z,98189.63
2023-05-22T15:19:11.362Z,98207.28
2023-05-22T15:22:19.580Z,98214.72
2023-05-22T15:25:24.942Z,98205.38
2023-05-22T15:28:30.253Z,98192.47
2023-05-22T15:31:34.946Z,98190.41
2023-05-22T15:34:51.543Z,98187.16
2023-05-22T15:37:56.117Z,98182.69
2023-05-22T15:41:04.873Z,98180.44
2023-05-22T15:44:12.194Z,98169.69
2023-05-22T15:47:26.486Z,98160.38
2023-05-22T15:50:34.223Z,98148.66
2023-05-22T15:53:39.425Z,98141.09
2023-05-22T15:56:44.163Z,98146.72
2023-05-22T15:59:51.701Z,98149.13
2023-05-22T16:02:54.769Z,98156.19
2023-05-22T16:05:57.081Z,98160.09
2023-05-22T16:08:59.401Z,98171.97
2023-05-22T16:12:02.177Z,98165.16
2023-05-22T16:15:07.105Z,98190.69
2023-05-22T16:18:12.300Z,98213.38
2023-05-22T16:21:14.857Z,98225.19
2023-05-22T16:24:21.929Z,98235.41
2023-05-22T16:27:23.992Z,98235.28
2023-05-22T16:30:31.784Z,98225.13
2023-05-22T16:33:43.724Z,98210.78
2023-05-22T16:36:48.264Z,98199.63
2023-05-22T16:40:17.914Z,98186.91
2023-05-22T16:43:42.002Z,98199.75
2023-05-22T16:46:50.625Z,98228.81
2023-05-22T16:49:52.837Z,98250.66
2023-05-22T16:52:57.507Z,98261.69
2023-05-22T16:56:01.098Z,98271.69
2023-05-22T16:59:22.810Z,98270.00
2023-05-22T17:02:29.509Z,98250.53
2023-05-22T17:05:35.801Z,98230.41
2023-05-22T17:08:39.502Z,98207.72
2023-05-22T17:11:42.217Z,98190.31
2023-05-22T17:14:46.454Z,98192.44
2023-05-22T17:17:55.633Z,98199.91
2023-05-22T17:21:00.563Z,98204.06
2023-05-22T17:24:14.524Z,98185.44
2023-05-22T17:27:31.999Z,98176.84
2023-05-22T17:34:01.666Z,98180.38
2023-05-22T17:37:12.389Z,98166.91
2023-05-22T17:40:43.324Z,98175.44
2023-05-22T17:43:55.260Z,98170.56
2023-05-22T17:47:03.835Z,98178.38
2023-05-22T17:50:16.770Z,98176.66
2023-05-22T17:53:24.032Z,98170.78
2023-05-22T17:56:38.117Z,98161.13
2023-05-22T17:59:42.520Z,98159.41
2023-05-22T18:02:50.011Z,98146.06
2023-05-22T18:05:59.020Z,98141.78
2023-05-22T18:09:06.577Z,98133.81
2023-05-22T18:12:30.152Z,98134.69
2023-05-22T18:15:37.629Z,98131.13
2023-05-22T18:18:41.974Z,98127.19
2023-05-22T18:21:56.135Z,98128.66
2023-05-22T18:25:22.860Z,98122.06
2023-05-22T18:28:27.731Z,98134.81
2023-05-22T18:31:33.689Z,98134.31
2023-05-22T18:34:40.954Z,98122.56
2023-05-22T18:37:44.811Z,98124.50
2023-05-22T18:40:47.357Z,98128.66
2023-05-22T18:44:00.449Z,98138.47
2023-05-22T18:47:02.618Z,98139.09
2023-05-22T18:50:15.876Z,98156.13
2023-05-22T18:53:19.633Z,98172.25
2023-05-22T18:56:32.178Z,98185.34
2023-05-22T18:59:43.602Z,98205.88
2023-05-22T19:02:45.818Z,98223.09
2023-05-22T19:05:48.027Z,98236.25
2023-05-22T19:08:52.525Z,98251.56
2023-05-22T19:11:58.658Z,98254.59
2023-05-22T19:15:11.490Z,98266.09
2023-05-22T19:18:19.732Z,98266.59
2023-05-22T19:21:32.630Z,98271.25
2023-05-22T19:24:38.705Z,98259.56
2023-05-22T19:27:43.937Z,98266.78
2023-05-22T19:30:46.404Z,98269.25
2023-05-22T19:33:50.970Z,98275.59
2023-05-22T19:36:58.791Z,98282.31
2023-05-22T19:40:04.561Z,98287.59
2023-05-22T19:43:11.338Z,98286.31
2023-05-22T19:46:14.837Z,98292.22
2023-05-22T19:49:21.212Z,98294.63
2023-05-22T19:52:23.341Z,98307.56
2023-05-22T19:55:32.549Z,98305.81
2023-05-22T19:58:35.568Z,98299.03
2023-05-22T20:01:40.297Z,98301.81
2023-05-22T20:05:02.962Z,98293.75
2023-05-22T20:08:07.452Z,98289.88
2023-05-22T20:11:13.435Z,98294.94
2023-05-22T20:14:36.448Z,98287.53
2023-05-22T20:17:41.861Z,98287.63
2023-05-22T20:20:54.655Z,98287.72
2023-05-22T20:24:00.295Z,98286.66
2023-05-22T20:27:09.130Z,98293.88
2023-05-22T20:30:16.885Z,98280.50
2023-05-22T20:33:24.785Z,98273.41
2023-05-22T20:36:30.746Z,98268.91
2023-05-22T20:39:35.738Z,98274.41
2023-05-22T20:42:40.007Z,98268.56
2023-05-22T20:45:46.162Z,98266.97
2023-05-22T20:48:51.418Z,98268.16
2023-05-22T20:51:56.096Z,98280.19
2023-05-22T20:54:58.852Z,98268.47
2023-05-22T20:58:16.821Z,98272.00
2023-05-22T21:01:24.536Z,98270.72
2023-05-22T21:04:31.895Z,98280.25
2023-05-22T21:07:39.869Z,98277.00
2023-05-22T21:10:42.141Z,98272.28
2023-05-22T21:13:49.940Z,98278.25
2023-05-22T21:17:05.621Z,98277.16
2023-05-22T21:20:08.241Z,98277.91
2023-05-22T21:23:10.519Z,98285.72
2023-05-22T21:26:14.674Z,98280.16
2023-05-22T21:29:18.750Z,98283.47
2023-05-22T21:32:23.832Z,98274.19
2023-05-22T21:35:27.131Z,98281.53
2023-05-22T21:38:29.616Z,98279.69
2023-05-22T21:41:35.570Z,98277.00
2023-05-22T21:44:39.289Z,98284.09
2023-05-22T21:47:45.303Z,98279.94
2023-05-22T21:50:54.711Z,98282.63
2023-05-22T21:54:04.701Z,98276.25
2023-05-22T21:57:08.960Z,98275.16
2023-05-22T22:00:17.532Z,98276.88
2023-05-22T22:03:22.541Z,98270.03
2023-05-22T22:06:27.384Z,98269.28
2023-05-22T22:09:31.281Z,98270.88
2023-05-22T22:12:46.293Z,98261.34
2023-05-22T22:15:55.408Z,98268.31
2023-05-22T22:19:01.999Z,98270.13
2023-05-22T22:22:13.497Z,98267.34
2023-05-22T22:25:19.868Z,98268.63
2023-05-22T22:28:26.457Z,98274.41
2023-05-22T22:31:51.195Z,98283.00
2023-05-22T22:35:07.532Z,98277.09
2023-05-22T22:38:09.849Z,98268.28
2023-05-22T22:41:14.123Z,98270.97
2023-05-22T22:44:18.097Z,98268.50
2023-05-22T22:47:27.443Z,98265.16
2023-05-22T22:50:33.609Z,98257.97
2023-05-22T22:53:38.678Z,98260.66
2023-05-22T22:56:44.111Z,98260.13
2023-05-22T22:59:46.568Z,98253.03
2023-05-22T23:02:49.341Z,98262.19
2023-05-22T23:05:56.738Z,98257.44
2023-05-22T23:08:59.786Z,98262.31
2023-05-22T23:12:02.597Z,98264.53
2023-05-22T23:15:06.499Z,98275.75
2023-05-22T23:18:08.906Z,98271.44
2023-05-22T23:21:13.964Z,98269.50
2023-05-22T23:24:20.324Z,98269.81
2023-05-22T23:27:38.421Z,98264.69
2023-05-22T23:30:43.605Z,98260.47
2023-05-22T23:33:47.844Z,98260.59
2023-05-22T23:36:52.368Z,98257.03
2023-05-22T23:39:58.528Z,98246.81
2023-05-22T23:43:01.749Z,98254.34
2023-05-22T23:46:05.121Z,98260.81
2023-05-22T23:49:07.698Z,98265.75
2023-05-22T23:52:20.925Z,98260.50
2023-05-22T23:55:24.628Z,98264.63
2023-05-22T23:58:30.290Z,98265.25
